createdAt,value
2017-10-03T03:25:51.509Z,16.40
2017-10-03T03:28:18.303Z,11.60
2017-10-03T03:30:44.368Z,11.60
2017-10-03T03:33:10.429Z,11.60
2017-10-03T03:35:37.240Z,11.60
2017-10-03T03:38:03.293Z,11.60
2017-10-03T03:40:29.343Z,11.60
2017-10-03T03:42:55.421Z,11.60
2017-10-03T03:45:21.478Z,11.60
2017-10-03T03:47:47.521Z,11.60
2017-10-03T03:50:13.610Z,11.60
2017-10-03T03:52:39.686Z,11.50
2017-10-03T03:55:05.754Z,11.50
2017-10-03T03:57:31.847Z,11.50
2017-10-03T03:59:58.646Z,11.50
2017-10-03T04:02:24.705Z,11.40
2017-10-03T04:04:50.836Z,11.50
2017-10-03T04:07:16.885Z,11.50
2017-10-03T04:09:42.937Z,11.50
2017-10-03T04:12:08.992Z,11.50
2017-10-03T04:14:35.046Z,11.60
2017-10-03T04:17:01.837Z,11.60
2017-10-03T04:19:27.904Z,11.50
2017-10-03T04:21:53.984Z,11.60
2017-10-03T04:24:20.039Z,11.50
2017-10-03T04:26:46.167Z,11.60
2017-10-03T04:29:12.244Z,11.60
2017-10-03T04:31:38.307Z,11.60
2017-10-03T04:34:04.377Z,11.60
2017-10-03T04:36:30.425Z,11.60
2017-10-03T04:38:57.232Z,11.70
2017-10-03T04:41:23.256Z,11.60
2017-10-03T04:43:49.466Z,11.70
2017-10-03T04:46:15.505Z,11.70
2017-10-03T04:48:42.285Z,11.60
2017-10-03T04:51:08.338Z,11.60
2017-10-03T04:53:34.386Z,11.60
2017-10-03T04:56:01.286Z,11.60
2017-10-03T04:58:27.362Z,11.50
2017-10-03T05:00:53.430Z,11.50
2017-10-03T05:03:19.516Z,11.40
2017-10-03T05:05:45.569Z,11.40
2017-10-03T05:08:11.634Z,11.40
2017-10-03T05:10:37.727Z,11.40
2017-10-03T05:13:04.528Z,11.30
2017-10-03T05:15:30.630Z,11.40
2017-10-03T05:17:56.681Z,11.40
2017-10-03T05:20:22.730Z,11.40
2017-10-03T05:22:48.825Z,11.40
2017-10-03T05:25:14.901Z,11.40
2017-10-03T05:27:40.960Z,11.30
2017-10-03T05:30:07.011Z,11.30
2017-10-03T05:32:33.820Z,11.20
2017-10-03T05:34:59.881Z,11.20
2017-10-03T05:37:25.925Z,11.20
2017-10-03T05:39:51.997Z,11.20
2017-10-03T05:42:18.047Z,11.20
2017-10-03T05:44:44.117Z,11.20
2017-10-03T05:47:10.166Z,11.20
2017-10-03T05:49:36.232Z,11.20
2017-10-03T05:52:02.289Z,11.20
2017-10-03T05:54:28.358Z,11.20
2017-10-03T05:56:54.437Z,11.20
2017-10-03T05:59:21.233Z,11.20
2017-10-03T06:01:47.341Z,11.20
2017-10-03T06:04:13.415Z,11.30
2017-10-03T06:06:39.512Z,11.30
2017-10-03T06:09:05.609Z,11.30
2017-10-03T06:11:31.673Z,11.30
2017-10-03T06:13:57.745Z,11.30
2017-10-03T06:16:24.885Z,11.40
2017-10-03T06:18:50.941Z,11.40
2017-10-03T06:21:17.013Z,11.50
2017-10-03T06:23:43.061Z,11.50
2017-10-03T06:26:09.141Z,11.50
2017-10-03T06:28:35.208Z,11.50
2017-10-03T06:31:02.157Z,11.50
2017-10-03T06:33:28.217Z,11.50
2017-10-03T06:35:54.317Z,11.60
2017-10-03T06:38:20.345Z,11.70
2017-10-03T06:40:46.373Z,11.70
2017-10-03T06:43:12.443Z,11.80
2017-10-03T06:45:38.493Z,11.80
2017-10-03T06:48:05.341Z,11.80
2017-10-03T06:50:31.384Z,11.80
2017-10-03T06:52:57.448Z,11.80
2017-10-03T06:55:23.488Z,11.70
2017-10-03T06:57:50.437Z,11.80
2017-10-03T07:00:16.530Z,11.80
2017-10-03T07:02:42.639Z,11.90
2017-10-03T07:05:08.697Z,11.90
2017-10-03T07:07:35.876Z,12.00
2017-10-03T07:10:02.746Z,12.00
2017-10-03T07:12:29.562Z,12.20
2017-10-03T07:14:55.637Z,12.10
2017-10-03T07:17:21.704Z,12.30
2017-10-03T07:19:47.752Z,12.40
2017-10-03T07:22:13.869Z,12.40
2017-10-03T07:24:39.933Z,12.40
2017-10-03T07:27:06.749Z,12.40
2017-10-03T07:29:32.791Z,12.40
2017-10-03T07:31:58.869Z,12.50
2017-10-03T07:34:24.944Z,12.50
2017-10-03T07:36:50.989Z,12.60
2017-10-03T07:39:17.051Z,12.70
2017-10-03T07:41:43.106Z,12.70
2017-10-03T07:44:09.150Z,12.80
2017-10-03T07:46:35.202Z,13.00
2017-10-03T07:49:02.233Z,13.10
2017-10-03T07:51:28.305Z,13.20
2017-10-03T07:53:54.348Z,13.20
2017-10-03T07:56:21.145Z,13.40
2017-10-03T07:58:47.211Z,13.30
2017-10-03T08:01:14.006Z,13.20
2017-10-03T08:03:40.066Z,13.20
2017-10-03T08:06:06.268Z,13.20
2017-10-03T08:08:33.079Z,13.30
2017-10-03T08:10:59.129Z,13.20
2017-10-03T08:13:25.197Z,13.20
2017-10-03T08:15:51.241Z,13.20
2017-10-03T08:18:17.288Z,13.20
2017-10-03T08:20:44.232Z,13.30
2017-10-03T08:23:10.288Z,13.30
2017-10-03T08:25:36.363Z,13.30
2017-10-03T08:28:02.429Z,13.30
2017-10-03T08:30:28.508Z,13.40
2017-10-03T08:32:54.565Z,13.60
2017-10-03T08:35:20.614Z,13.80
2017-10-03T08:37:47.400Z,13.50
2017-10-03T08:40:13.457Z,13.50
2017-10-03T08:42:39.515Z,13.40
2017-10-03T08:45:05.698Z,13.30
2017-10-03T08:47:31.831Z,13.20
2017-10-03T08:49:59.698Z,13.20
2017-10-03T08:52:26.701Z,13.60
2017-10-03T08:54:52.746Z,13.60
2017-10-03T08:57:18.798Z,13.80
2017-10-03T08:59:45.578Z,14.10
2017-10-03T09:02:11.649Z,14.10
2017-10-03T09:04:37.722Z,14.20
2017-10-03T09:07:04.539Z,13.70
2017-10-03T09:09:37.549Z,13.70
2017-10-03T09:12:03.600Z,13.50
2017-10-03T09:14:29.659Z,13.30
2017-10-03T09:16:55.895Z,13.30
2017-10-03T09:19:23.181Z,13.50
2017-10-03T09:21:49.462Z,13.50
2017-10-03T09:24:15.537Z,13.30
2017-10-03T09:26:41.731Z,13.10
2017-10-03T09:29:08.173Z,13.30
2017-10-03T09:31:34.369Z,13.80
2017-10-03T09:34:01.809Z,14.00
2017-10-03T09:36:29.198Z,14.80
2017-10-03T09:38:55.388Z,14.80
2017-10-03T09:41:21.461Z,15.10
2017-10-03T09:43:48.278Z,14.60
2017-10-03T09:46:14.361Z,14.60
2017-10-03T09:48:40.466Z,14.30
2017-10-03T09:51:06.546Z,14.10
2017-10-03T09:53:32.716Z,14.00
2017-10-03T09:55:59.559Z,14.10
2017-10-03T09:58:26.467Z,14.10
2017-10-03T10:00:53.289Z,14.20
2017-10-03T10:03:19.371Z,14.20
2017-10-03T10:05:45.462Z,14.30
2017-10-03T10:08:18.398Z,14.30
